sensor_id;sensor_type;location;lat;lon;timestamp;pressure;altitude;pressure_sealevel;temperature;humidity
21644;BME280;10983;51.982;9.226;2023-04-15T00:00:56;98920.69;;;6.12;100.00
21644;BME280;10983;51.982;9.226;2023-04-15T00:03:24;98920.78;;;6.16;100.00
21644;BME280;10983;51.982;9.226;2023-04-15T00:05:52;98909.91;;;6.13;100.00
21644;BME280;10983;51.982;9.226;2023-04-15T00:08:19;98917.13;;;6.17;100.00
21644;BME280;10983;51.982;9.226;2023-04-15T00:10:48;98911.13;;;6.22;100.00
21644;BME280;10983;51.982;9.226;2023-04-15T00:13:16;98921.69;;;6.22;100.00
21644;BME280;10983;51.982;9.226;2023-04-15T00:15:43;98921.94;;;6.32;100.00
21644;BME280;10983;51.982;9.226;2023-04-15T00:18:11;98915.81;;;6.43;100.00
21644;BME280;10983;51.982;9.226;2023-04-15T00:20:39;98912.28;;;6.37;100.00
21644;BME280;10983;51.982;9.226;2023-04-15T00:23:07;98911.81;;;6.40;100.00
21644;BME280;10983;51.982;9.226;2023-04-15T00:25:34;98911.13;;;6.45;100.00
21644;BME280;10983;51.982;9.226;2023-04-15T00:28:03;98916.41;;;6.45;100.00
21644;BME280;10983;51.982;9.226;2023-04-15T00:30:31;98907.34;;;6.29;100.00
21644;BME280;10983;51.982;9.226;2023-04-15T00:32:59;98906.81;;;6.27;100.00
21644;BME280;10983;51.982;9.226;2023-04-15T00:35:27;98907.81;;;6.15;100.00
21644;BME280;10983;51.982;9.226;2023-04-15T00:37:55;98911.13;;;6.22;100.00
21644;BME280;10983;51.982;9.226;2023-04-15T00:40:22;98903.44;;;6.20;100.00
21644;BME280;10983;51.982;9.226;2023-04-15T00:42:51;98911.50;;;6.25;100.00
21644;BME280;10983;51.982;9.226;2023-04-15T00:45:21;98909.44;;;6.16;100.00
21644;BME280;10983;51.982;9.226;2023-04-15T00:47:48;98899.78;;;6.21;100.00
21644;BME280;10983;51.982;9.226;2023-04-15T00:50:17;98911.84;;;6.17;100.00
21644;BME280;10983;51.982;9.226;2023-04-15T00:52:44;98907.34;;;6.18;100.00
21644;BME280;10983;51.982;9.226;2023-04-15T00:55:12;98906.22;;;6.25;100.00
21644;BME280;10983;51.982;9.226;2023-04-15T00:57:39;98902.31;;;6.28;100.00
21644;BME280;10983;51.982;9.226;2023-04-15T01:00:07;98899.31;;;6.24;100.00
21644;BME280;10983;51.982;9.226;2023-04-15T01:02:38;98897.50;;;6.25;100.00
21644;BME280;10983;51.982;9.226;2023-04-15T01:05:06;98904.38;;;6.26;100.00
21644;BME280;10983;51.982;9.226;2023-04-15T01:07:33;98898.53;;;6.13;100.00
21644;BME280;10983;51.982;9.226;2023-04-15T01:10:02;98913.09;;;6.26;100.00
21644;BME280;10983;51.982;9.226;2023-04-15T01:12:31;98912.59;;;6.52;100.00
21644;BME280;10983;51.982;9.226;2023-04-15T01:14:59;98912.66;;;6.68;100.00
21644;BME280;10983;51.982;9.226;2023-04-15T01:17:27;98912.75;;;6.73;100.00
21644;BME280;10983;51.982;9.226;2023-04-15T01:19:56;98919.66;;;6.74;100.00
21644;BME280;10983;51.982;9.226;2023-04-15T01:22:25;98917.91;;;6.80;100.00
21644;BME280;10983;51.982;9.226;2023-04-15T01:24:55;98915.03;;;6.81;100.00
21644;BME280;10983;51.982;9.226;2023-04-15T01:27:27;98923.75;;;6.82;100.00
21644;BME280;10983;51.982;9.226;2023-04-15T01:29:55;98909.09;;;6.74;100.00
21644;BME280;10983;51.982;9.226;2023-04-15T01:32:25;98872.66;;;6.49;100.00
21644;BME280;10983;51.982;9.226;2023-04-15T01:34:56;98858.47;;;6.38;100.00
21644;BME280;10983;51.982;9.226;2023-04-15T01:37:25;98906.34;;;6.69;100.00
21644;BME280;10983;51.982;9.226;2023-04-15T01:39:54;98911.75;;;6.63;100.00
21644;BME280;10983;51.982;9.226;2023-04-15T01:42:30;98900.63;;;6.61;100.00
21644;BME280;10983;51.982;9.226;2023-04-15T01:45:06;98911.31;;;6.66;100.00
21644;BME280;10983;51.982;9.226;2023-04-15T01:47:34;98866.63;;;6.37;100.00
21644;BME280;10983;51.982;9.226;2023-04-15T01:50:05;98892.41;;;6.46;100.00
21644;BME280;10983;51.982;9.226;2023-04-15T01:52:38;98866.50;;;6.20;100.00
21644;BME280;10983;51.982;9.226;2023-04-15T01:55:08;98867.41;;;6.26;100.00
21644;BME280;10983;51.982;9.226;2023-04-15T01:57:38;98908.56;;;6.50;100.00
21644;BME280;10983;51.982;9.226;2023-04-15T02:00:09;98905.84;;;6.45;100.00
21644;BME280;10983;51.982;9.226;2023-04-15T02:02:53;98899.19;;;6.42;100.00
21644;BME280;10983;51.982;9.226;2023-04-15T02:05:28;98891.28;;;6.31;100.00
21644;BME280;10983;51.982;9.226;2023-04-15T02:08:03;98907.94;;;6.31;100.00
21644;BME280;10983;51.982;9.226;2023-04-15T02:10:33;98903.13;;;6.17;100.00
21644;BME280;10983;51.982;9.226;2023-04-15T02:13:04;98914.47;;;6.17;100.00
21644;BME280;10983;51.982;9.226;2023-04-15T02:15:36;98908.63;;;6.27;100.00
21644;BME280;10983;51.982;9.226;2023-04-15T02:18:07;98908.19;;;6.18;100.00
21644;BME280;10983;51.982;9.226;2023-04-15T02:20:37;98900.50;;;6.17;100.00
21644;BME280;10983;51.982;9.226;2023-04-15T02:23:10;98918.69;;;6.41;100.00
21644;BME280;10983;51.982;9.226;2023-04-15T02:25:39;98908.06;;;6.25;100.00
21644;BME280;10983;51.982;9.226;2023-04-15T02:28:21;98927.97;;;6.55;100.00
21644;BME280;10983;51.982;9.226;2023-04-15T02:30:49;98907.56;;;6.39;100.00
21644;BME280;10983;51.982;9.226;2023-04-15T02:33:26;98898.75;;;6.22;100.00
21644;BME280;10983;51.982;9.226;2023-04-15T02:35:58;98903.38;;;6.15;100.00
21644;BME280;10983;51.982;9.226;2023-04-15T02:38:35;98922.03;;;6.25;100.00
21644;BME280;10983;51.982;9.226;2023-04-15T02:41:06;98919.53;;;6.30;100.00
21644;BME280;10983;51.982;9.226;2023-04-15T02:43:39;98916.88;;;6.30;100.00
21644;BME280;10983;51.982;9.226;2023-04-15T02:46:08;98882.94;;;6.22;100.00
21644;BME280;10983;51.982;9.226;2023-04-15T02:48:43;98890.69;;;6.40;100.00
21644;BME280;10983;51.982;9.226;2023-04-15T02:51:15;98931.13;;;6.80;100.00
21644;BME280;10983;51.982;9.226;2023-04-15T02:53:47;98916.31;;;6.79;100.00
21644;BME280;10983;51.982;9.226;2023-04-15T02:56:21;98917.66;;;6.93;100.00
21644;BME280;10983;51.982;9.226;2023-04-15T02:58:50;98877.81;;;6.83;100.00
21644;BME280;10983;51.982;9.226;2023-04-15T03:01:21;98916.19;;;7.13;100.00
21644;BME280;10983;51.982;9.226;2023-04-15T03:03:49;98897.72;;;7.02;100.00
21644;BME280;10983;51.982;9.226;2023-04-15T03:06:22;98919.06;;;7.12;100.00
21644;BME280;10983;51.982;9.226;2023-04-15T03:08:56;98880.31;;;6.89;100.00
21644;BME280;10983;51.982;9.226;2023-04-15T03:11:27;98910.63;;;6.98;100.00
21644;BME280;10983;51.982;9.226;2023-04-15T03:14:04;98922.31;;;7.02;100.00
21644;BME280;10983;51.982;9.226;2023-04-15T03:16:34;98928.88;;;7.00;100.00
21644;BME280;10983;51.982;9.226;2023-04-15T03:19:06;98932.00;;;6.97;100.00
21644;BME280;10983;51.982;9.226;2023-04-15T03:21:34;98929.50;;;6.90;100.00
21644;BME280;10983;51.982;9.226;2023-04-15T03:24:04;98896.97;;;6.62;100.00
21644;BME280;10983;51.982;9.226;2023-04-15T03:26:37;98932.03;;;6.85;100.00
21644;BME280;10983;51.982;9.226;2023-04-15T03:29:12;98900.06;;;6.59;100.00
21644;BME280;10983;51.982;9.226;2023-04-15T03:31:44;98935.81;;;6.89;100.00
21644;BME280;10983;51.982;9.226;2023-04-15T03:34:14;98926.75;;;6.85;100.00
21644;BME280;10983;51.982;9.226;2023-04-15T03:36:44;98921.59;;;6.79;100.00
21644;BME280;10983;51.982;9.226;2023-04-15T03:39:16;98922.72;;;6.83;100.00
21644;BME280;10983;51.982;9.226;2023-04-15T03:42:00;98924.31;;;6.95;100.00
21644;BME280;10983;51.982;9.226;2023-04-15T03:44:36;98922.47;;;6.96;100.00
21644;BME280;10983;51.982;9.226;2023-04-15T03:47:06;98931.69;;;7.10;100.00
21644;BME280;10983;51.982;9.226;2023-04-15T03:49:42;98910.00;;;7.08;100.00
21644;BME280;10983;51.982;9.226;2023-04-15T03:52:12;98932.47;;;7.22;100.00
21644;BME280;10983;51.982;9.226;2023-04-15T03:54:42;98909.53;;;7.11;100.00
21644;BME280;10983;51.982;9.226;2023-04-15T03:57:14;98931.53;;;7.27;100.00
21644;BME280;10983;51.982;9.226;2023-04-15T03:59:43;98926.78;;;7.29;100.00
21644;BME280;10983;51.982;9.226;2023-04-15T04:02:17;98926.09;;;7.34;100.00
21644;BME280;10983;51.982;9.226;2023-04-15T04:04:46;98933.78;;;7.35;100.00
21644;BME280;10983;51.982;9.226;2023-04-15T04:07:22;98932.72;;;7.36;100.00
21644;BME280;10983;51.982;9.226;2023-04-15T04:09:52;98917.50;;;7.27;100.00
21644;BME280;10983;51.982;9.226;2023-04-15T04:12:21;98935.38;;;7.36;100.00
21644;BME280;10983;51.982;9.226;2023-04-15T04:14:53;98905.47;;;7.20;100.00
21644;BME280;10983;51.982;9.226;2023-04-15T04:17:21;98946.03;;;7.41;100.00
21644;BME280;10983;51.982;9.226;2023-04-15T04:19:51;98943.75;;;7.45;100.00
21644;BME280;10983;51.982;9.226;2023-04-15T04:22:27;98944.88;;;7.49;100.00
21644;BME280;10983;51.982;9.226;2023-04-15T04:25:09;98936.03;;;7.43;100.00
21644;BME280;10983;51.982;9.226;2023-04-15T04:27:39;98947.56;;;7.54;100.00
21644;BME280;10983;51.982;9.226;2023-04-15T04:30:10;98960.66;;;7.60;100.00
21644;BME280;10983;51.982;9.226;2023-04-15T04:32:38;98963.00;;;7.57;100.00
21644;BME280;10983;51.982;9.226;2023-04-15T04:35:08;98942.38;;;7.42;100.00
21644;BME280;10983;51.982;9.226;2023-04-15T04:37:36;98969.66;;;7.59;100.00
21644;BME280;10983;51.982;9.226;2023-04-15T04:40:08;98967.16;;;7.69;100.00
21644;BME280;10983;51.982;9.226;2023-04-15T04:42:41;98964.81;;;7.56;100.00
21644;BME280;10983;51.982;9.226;2023-04-15T04:45:11;98953.53;;;7.61;100.00
21644;BME280;10983;51.982;9.226;2023-04-15T04:47:40;98974.53;;;7.67;100.00
21644;BME280;10983;51.982;9.226;2023-04-15T04:50:11;98972.81;;;7.73;100.00
21644;BME280;10983;51.982;9.226;2023-04-15T04:52:40;98960.75;;;7.65;100.00
21644;BME280;10983;51.982;9.226;2023-04-15T04:55:14;98920.97;;;7.44;100.00
21644;BME280;10983;51.982;9.226;2023-04-15T04:57:47;98979.75;;;7.79;100.00
21644;BME280;10983;51.982;9.226;2023-04-15T05:00:26;98984.03;;;7.80;100.00
21644;BME280;10983;51.982;9.226;2023-04-15T05:02:56;98980.00;;;7.77;100.00
21644;BME280;10983;51.982;9.226;2023-04-15T05:05:24;98987.16;;;7.77;100.00
21644;BME280;10983;51.982;9.226;2023-04-15T05:07:53;98991.00;;;7.85;100.00
21644;BME280;10983;51.982;9.226;2023-04-15T05:10:23;98996.53;;;7.84;100.00
21644;BME280;10983;51.982;9.226;2023-04-15T05:12:51;98991.72;;;7.81;100.00
21644;BME280;10983;51.982;9.226;2023-04-15T05:15:20;98991.47;;;7.82;100.00
21644;BME280;10983;51.982;9.226;2023-04-15T05:17:47;98989.22;;;7.75;100.00
21644;BME280;10983;51.982;9.226;2023-04-15T05:20:15;98987.53;;;7.69;100.00
21644;BME280;10983;51.982;9.226;2023-04-15T05:22:42;98977.75;;;7.69;100.00
21644;BME280;10983;51.982;9.226;2023-04-15T05:25:10;98970.44;;;7.60;100.00
21644;BME280;10983;51.982;9.226;2023-04-15T05:27:37;98962.91;;;7.52;100.00
21644;BME280;10983;51.982;9.226;2023-04-15T05:30:06;98965.94;;;7.60;100.00
21644;BME280;10983;51.982;9.226;2023-04-15T05:32:35;98964.56;;;7.58;100.00
21644;BME280;10983;51.982;9.226;2023-04-15T05:35:03;98964.56;;;7.58;100.00
21644;BME280;10983;51.982;9.226;2023-04-15T05:37:30;98958.84;;;7.61;100.00
21644;BME280;10983;51.982;9.226;2023-04-15T05:39:59;98955.06;;;7.57;100.00
21644;BME280;10983;51.982;9.226;2023-04-15T05:42:28;98952.06;;;7.53;100.00
21644;BME280;10983;51.982;9.226;2023-04-15T05:44:55;98962.41;;;7.55;100.00
21644;BME280;10983;51.982;9.226;2023-04-15T05:47:24;98965.88;;;7.55;100.00
21644;BME280;10983;51.982;9.226;2023-04-15T05:49:52;98966.34;;;7.52;100.00
21644;BME280;10983;51.982;9.226;2023-04-15T05:52:21;98962.09;;;7.51;100.00
21644;BME280;10983;51.982;9.226;2023-04-15T05:54:48;98963.38;;;7.49;100.00
21644;BME280;10983;51.982;9.226;2023-04-15T05:57:15;98962.56;;;7.48;100.00
21644;BME280;10983;51.982;9.226;2023-04-15T05:59:43;98979.91;;;7.56;100.00
21644;BME280;10983;51.982;9.226;2023-04-15T06:02:10;98975.50;;;7.61;100.00
21644;BME280;10983;51.982;9.226;2023-04-15T06:04:38;98980.78;;;7.61;100.00
21644;BME280;10983;51.982;9.226;2023-04-15T06:07:07;98989.28;;;7.63;100.00
21644;BME280;10983;51.982;9.226;2023-04-15T06:09:34;98997.22;;;7.63;100.00
21644;BME280;10983;51.982;9.226;2023-04-15T06:12:02;98995.78;;;7.72;100.00
21644;BME280;10983;51.982;9.226;2023-04-15T06:14:30;98995.03;;;7.60;100.00
21644;BME280;10983;51.982;9.226;2023-04-15T06:16:57;98998.16;;;7.57;100.00
21644;BME280;10983;51.982;9.226;2023-04-15T06:19:24;99004.25;;;7.58;100.00
21644;BME280;10983;51.982;9.226;2023-04-15T06:21:52;99005.13;;;7.63;100.00
21644;BME280;10983;51.982;9.226;2023-04-15T06:24:21;99005.97;;;7.64;100.00
21644;BME280;10983;51.982;9.226;2023-04-15T06:26:48;99011.41;;;7.57;100.00
21644;BME280;10983;51.982;9.226;2023-04-15T06:29:16;99015.66;;;7.58;100.00
21644;BME280;10983;51.982;9.226;2023-04-15T06:31:43;99025.03;;;7.66;100.00
21644;BME280;10983;51.982;9.226;2023-04-15T06:34:11;99024.97;;;7.61;100.00
21644;BME280;10983;51.982;9.226;2023-04-15T06:36:38;99029.34;;;7.55;100.00
21644;BME280;10983;51.982;9.226;2023-04-15T06:39:05;99037.28;;;7.55;100.00
21644;BME280;10983;51.982;9.226;2023-04-15T06:41:35;99035.06;;;7.64;100.00
21644;BME280;10983;51.982;9.226;2023-04-15T06:44:02;99046.66;;;7.63;100.00
21644;BME280;10983;51.982;9.226;2023-04-15T06:46:30;99045.16;;;7.67;100.00
21644;BME280;10983;51.982;9.226;2023-04-15T06:48:57;99041.97;;;7.65;100.00
21644;BME280;10983;51.982;9.226;2023-04-15T06:51:25;99049.53;;;7.73;100.00
21644;BME280;10983;51.982;9.226;2023-04-15T06:53:53;99048.94;;;7.71;100.00
21644;BME280;10983;51.982;9.226;2023-04-15T06:56:20;99057.88;;;7.81;100.00
21644;BME280;10983;51.982;9.226;2023-04-15T06:58:49;99061.63;;;7.69;100.00
21644;BME280;10983;51.982;9.226;2023-04-15T07:01:17;99058.53;;;7.60;100.00
21644;BME280;10983;51.982;9.226;2023-04-15T07:03:44;99056.19;;;7.47;100.00
21644;BME280;10983;51.982;9.226;2023-04-15T07:06:12;99060.09;;;7.45;100.00
21644;BME280;10983;51.982;9.226;2023-04-15T07:08:40;99071.09;;;7.53;100.00
21644;BME280;10983;51.982;9.226;2023-04-15T07:11:08;99070.84;;;7.55;100.00
21644;BME280;10983;51.982;9.226;2023-04-15T07:13:37;99076.72;;;7.57;100.00
21644;BME280;10983;51.982;9.226;2023-04-15T07:16:06;99079.59;;;7.55;100.00
21644;BME280;10983;51.982;9.226;2023-04-15T07:18:34;99084.56;;;7.52;100.00
21644;BME280;10983;51.982;9.226;2023-04-15T07:21:01;99086.19;;;7.41;100.00
21644;BME280;10983;51.982;9.226;2023-04-15T07:23:28;99090.88;;;7.51;100.00
21644;BME280;10983;51.982;9.226;2023-04-15T07:25:56;99102.13;;;7.58;100.00
21644;BME280;10983;51.982;9.226;2023-04-15T07:28:24;99093.63;;;7.56;100.00
21644;BME280;10983;51.982;9.226;2023-04-15T07:30:51;99091.22;;;7.54;100.00
21644;BME280;10983;51.982;9.226;2023-04-15T07:33:20;99106.59;;;7.69;100.00
21644;BME280;10983;51.982;9.226;2023-04-15T07:35:50;99103.94;;;7.69;100.00
21644;BME280;10983;51.982;9.226;2023-04-15T07:38:17;99099.09;;;7.66;100.00
21644;BME280;10983;51.982;9.226;2023-04-15T07:40:45;99109.00;;;7.70;100.00
21644;BME280;10983;51.982;9.226;2023-04-15T07:43:13;99107.75;;;7.61;100.00
21644;BME280;10983;51.982;9.226;2023-04-15T07:45:41;99114.53;;;7.69;100.00
21644;BME280;10983;51.982;9.226;2023-04-15T07:48:08;99121.38;;;7.81;100.00
21644;BME280;10983;51.982;9.226;2023-04-15T07:50:37;99114.94;;;7.77;100.00
21644;BME280;10983;51.982;9.226;2023-04-15T07:53:05;99124.25;;;7.80;100.00
21644;BME280;10983;51.982;9.226;2023-04-15T07:55:33;99124.63;;;7.72;100.00
21644;BME280;10983;51.982;9.226;2023-04-15T07:58:01;99132.69;;;7.77;100.00
21644;BME280;10983;51.982;9.226;2023-04-15T08:00:28;99123.66;;;7.78;100.00
21644;BME280;10983;51.982;9.226;2023-04-15T08:02:55;99138.94;;;7.87;100.00
21644;BME280;10983;51.982;9.226;2023-04-15T08:05:24;99131.38;;;7.79;100.00
21644;BME280;10983;51.982;9.226;2023-04-15T08:07:53;99122.78;;;7.72;100.00
21644;BME280;10983;51.982;9.226;2023-04-15T08:10:22;99133.75;;;7.92;100.00
21644;BME280;10983;51.982;9.226;2023-04-15T08:12:51;99139.19;;;7.85;100.00
21644;BME280;10983;51.982;9.226;2023-04-15T08:15:19;99136.41;;;7.92;100.00
21644;BME280;10983;51.982;9.226;2023-04-15T08:17:47;99143.63;;;7.96;100.00
21644;BME280;10983;51.982;9.226;2023-04-15T08:20:15;99138.56;;;7.95;100.00
21644;BME280;10983;51.982;9.226;2023-04-15T08:22:42;99137.06;;;7.99;100.00
21644;BME280;10983;51.982;9.226;2023-04-15T08:25:11;99138.78;;;8.05;100.00
21644;BME280;10983;51.982;9.226;2023-04-15T08:27:39;99133.66;;;7.87;100.00
21644;BME280;10983;51.982;9.226;2023-04-15T08:30:07;99130.44;;;7.85;100.00
21644;BME280;10983;51.982;9.226;2023-04-15T08:32:35;99135.13;;;7.94;100.00
21644;BME280;10983;51.982;9.226;2023-04-15T08:35:04;99137.56;;;7.84;100.00
21644;BME280;10983;51.982;9.226;2023-04-15T08:37:31;99138.28;;;7.80;100.00
21644;BME280;10983;51.982;9.226;2023-04-15T08:39:59;99143.34;;;7.81;100.00
21644;BME280;10983;51.982;9.226;2023-04-15T08:42:31;99144.03;;;7.77;100.00
21644;BME280;10983;51.982;9.226;2023-04-15T08:45:03;99147.13;;;7.85;100.00
21644;BME280;10983;51.982;9.226;2023-04-15T08:47:32;99148.38;;;7.83;100.00
21644;BME280;10983;51.982;9.226;2023-04-15T08:50:02;99157.06;;;8.06;100.00
21644;BME280;10983;51.982;9.226;2023-04-15T08:52:31;99159.91;;;8.16;100.00
21644;BME280;10983;51.982;9.226;2023-04-15T08:54:59;99149.13;;;8.06;100.00
21644;BME280;10983;51.982;9.226;2023-04-15T08:57:28;99160.75;;;8.05;100.00
21644;BME280;10983;51.982;9.226;2023-04-15T08:59:56;99157.78;;;8.02;100.00
21644;BME280;10983;51.982;9.226;2023-04-15T09:02:24;99153.81;;;8.04;100.00
21644;BME280;10983;51.982;9.226;2023-04-15T09:04:52;99165.22;;;8.16;100.00
21644;BME280;10983;51.982;9.226;2023-04-15T09:07:20;99166.81;;;8.17;100.00
21644;BME280;10983;51.982;9.226;2023-04-15T09:09:47;99162.66;;;8.21;100.00
21644;BME280;10983;51.982;9.226;2023-04-15T09:12:15;99168.53;;;8.12;100.00
21644;BME280;10983;51.982;9.226;2023-04-15T09:14:45;99166.94;;;8.11;100.00
21644;BME280;10983;51.982;9.226;2023-04-15T09:17:17;99164.19;;;8.06;100.00
21644;BME280;10983;51.982;9.226;2023-04-15T09:19:45;99171.09;;;8.07;100.00
21644;BME280;10983;51.982;9.226;2023-04-15T09:22:13;99173.97;;;8.17;100.00
21644;BME280;10983;51.982;9.226;2023-04-15T09:24:41;99184.09;;;8.08;100.00
21644;BME280;10983;51.982;9.226;2023-04-15T09:27:15;99175.78;;;8.16;100.00
21644;BME280;10983;51.982;9.226;2023-04-15T09:29:42;99191.78;;;8.21;100.00
21644;BME280;10983;51.982;9.226;2023-04-15T09:32:13;99185.84;;;8.14;100.00
21644;BME280;10983;51.982;9.226;2023-04-15T09:34:41;99188.50;;;8.31;100.00
21644;BME280;10983;51.982;9.226;2023-04-15T09:37:08;99193.66;;;8.37;100.00
21644;BME280;10983;51.982;9.226;2023-04-15T09:39:56;99202.84;;;8.46;100.00
21644;BME280;10983;51.982;9.226;2023-04-15T09:42:24;99207.78;;;8.70;100.00
21644;BME280;10983;51.982;9.226;2023-04-15T09:44:52;99208.72;;;8.64;100.00
21644;BME280;10983;51.982;9.226;2023-04-15T09:47:30;99205.13;;;8.70;100.00
21644;BME280;10983;51.982;9.226;2023-04-15T09:49:59;99195.41;;;8.59;100.00
21644;BME280;10983;51.982;9.226;2023-04-15T09:52:28;99202.28;;;8.60;100.00
21644;BME280;10983;51.982;9.226;2023-04-15T09:54:57;99208.91;;;8.58;100.00
21644;BME280;10983;51.982;9.226;2023-04-15T09:57:33;99200.94;;;8.58;100.00
21644;BME280;10983;51.982;9.226;2023-04-15T10:00:04;99206.41;;;8.68;100.00
21644;BME280;10983;51.982;9.226;2023-04-15T10:02:33;99211.25;;;8.87;100.00
21644;BME280;10983;51.982;9.226;2023-04-15T10:05:02;99201.91;;;8.68;100.00
21644;BME280;10983;51.982;9.226;2023-04-15T10:07:30;99208.03;;;8.69;100.00
21644;BME280;10983;51.982;9.226;2023-04-15T10:09:58;99207.75;;;8.54;100.00
21644;BME280;10983;51.982;9.226;2023-04-15T10:12:27;99209.69;;;8.58;100.00
21644;BME280;10983;51.982;9.226;2023-04-15T10:14:58;99221.75;;;8.66;100.00
21644;BME280;10983;51.982;9.226;2023-04-15T10:17:27;99219.50;;;8.74;100.00
21644;BME280;10983;51.982;9.226;2023-04-15T10:19:59;99233.66;;;8.80;100.00
21644;BME280;10983;51.982;9.226;2023-04-15T10:22:27;99228.50;;;8.73;100.00
21644;BME280;10983;51.982;9.226;2023-04-15T10:24:57;99152.31;;;8.08;100.00
21644;BME280;10983;51.982;9.226;2023-04-15T10:27:26;99223.72;;;8.59;100.00
21644;BME280;10983;51.982;9.226;2023-04-15T10:29:55;99236.91;;;8.54;100.00
21644;BME280;10983;51.982;9.226;2023-04-15T10:32:23;99251.13;;;8.64;100.00
21644;BME280;10983;51.982;9.226;2023-04-15T10:34:53;99249.66;;;8.57;100.00
21644;BME280;10983;51.982;9.226;2023-04-15T10:37:33;99240.44;;;8.59;100.00
21644;BME280;10983;51.982;9.226;2023-04-15T10:40:24;99254.94;;;8.85;100.00
21644;BME280;10983;51.982;9.226;2023-04-15T10:42:53;99257.00;;;8.83;100.00
21644;BME280;10983;51.982;9.226;2023-04-15T10:45:21;99260.88;;;8.75;100.00
21644;BME280;10983;51.982;9.226;2023-04-15T10:47:54;99239.97;;;8.62;100.00
21644;BME280;10983;51.982;9.226;2023-04-15T10:50:24;99264.34;;;8.92;100.00
21644;BME280;10983;51.982;9.226;2023-04-15T10:52:55;99267.41;;;9.00;100.00
21644;BME280;10983;51.982;9.226;2023-04-15T10:55:24;99261.38;;;8.89;100.00
21644;BME280;10983;51.982;9.226;2023-04-15T10:57:53;99268.25;;;8.90;100.00
21644;BME280;10983;51.982;9.226;2023-04-15T11:00:25;99268.75;;;8.87;100.00
21644;BME280;10983;51.982;9.226;2023-04-15T11:02:54;99262.41;;;8.88;100.00
21644;BME280;10983;51.982;9.226;2023-04-15T11:05:22;99267.47;;;8.89;100.00
21644;BME280;10983;51.982;9.226;2023-04-15T11:08:12;99271.50;;;9.08;100.00
21644;BME280;10983;51.982;9.226;2023-04-15T11:10:54;99272.53;;;9.07;100.00
21644;BME280;10983;51.982;9.226;2023-04-15T11:13:23;99262.81;;;8.96;100.00
21644;BME280;10983;51.982;9.226;2023-04-15T11:15:56;99274.56;;;9.16;100.00
21644;BME280;10983;51.982;9.226;2023-04-15T11:18:25;99267.56;;;9.27;100.00
21644;BME280;10983;51.982;9.226;2023-04-15T11:20:56;99263.09;;;9.27;100.00
21644;BME280;10983;51.982;9.226;2023-04-15T11:23:31;99262.47;;;9.42;100.00
21644;BME280;10983;51.982;9.226;2023-04-15T11:26:00;99245.44;;;9.38;100.00
21644;BME280;10983;51.982;9.226;2023-04-15T11:28:32;99236.28;;;9.45;100.00
21644;BME280;10983;51.982;9.226;2023-04-15T11:31:14;99241.09;;;9.48;100.00
21644;BME280;10983;51.982;9.226;2023-04-15T11:33:47;99234.75;;;9.49;100.00
21644;BME280;10983;51.982;9.226;2023-04-15T11:36:23;99231.47;;;9.42;100.00
21644;BME280;10983;51.982;9.226;2023-04-15T11:38:53;99228.94;;;9.52;100.00
21644;BME280;10983;51.982;9.226;2023-04-15T11:41:23;99225.81;;;9.55;100.00
21644;BME280;10983;51.982;9.226;2023-04-15T11:43:51;99233.84;;;9.60;100.00
21644;BME280;10983;51.982;9.226;2023-04-15T11:46:19;99224.34;;;9.64;100.00
21644;BME280;10983;51.982;9.226;2023-04-15T11:48:47;99220.97;;;9.68;100.00
21644;BME280;10983;51.982;9.226;2023-04-15T11:51:16;99218.31;;;9.68;100.00
21644;BME280;10983;51.982;9.226;2023-04-15T11:53:48;99219.03;;;9.64;100.00
21644;BME280;10983;51.982;9.226;2023-04-15T11:56:21;99208.84;;;9.77;100.00
21644;BME280;10983;51.982;9.226;2023-04-15T11:58:52;99209.34;;;9.74;100.00
21644;BME280;10983;51.982;9.226;2023-04-15T12:01:30;99210.16;;;9.75;100.00
21644;BME280;10983;51.982;9.226;2023-04-15T12:03:57;99213.38;;;9.77;100.00
21644;BME280;10983;51.982;9.226;2023-04-15T12:06:30;99213.19;;;9.83;100.00
21644;BME280;10983;51.982;9.226;2023-04-15T12:09:03;99205.06;;;9.90;100.00
21644;BME280;10983;51.982;9.226;2023-04-15T12:11:40;99208.25;;;9.92;100.00
21644;BME280;10983;51.982;9.226;2023-04-15T12:14:10;99205.00;;;9.85;100.00
21644;BME280;10983;51.982;9.226;2023-04-15T12:16:40;99217.44;;;9.84;100.00
21644;BME280;10983;51.982;9.226;2023-04-15T12:19:18;99217.09;;;9.97;100.00
21644;BME280;10983;51.982;9.226;2023-04-15T12:21:49;99213.66;;;9.97;100.00
21644;BME280;10983;51.982;9.226;2023-04-15T12:24:20;99214.47;;;9.97;100.00
21644;BME280;10983;51.982;9.226;2023-04-15T12:26:51;99210.56;;;10.05;100.00
21644;BME280;10983;51.982;9.226;2023-04-15T12:29:23;99215.13;;;10.09;100.00
21644;BME280;10983;51.982;9.226;2023-04-15T12:31:53;99216.31;;;10.18;100.00
21644;BME280;10983;51.982;9.226;2023-04-15T12:34:28;99215.63;;;10.27;100.00
21644;BME280;10983;51.982;9.226;2023-04-15T12:36:59;99186.09;;;10.03;100.00
21644;BME280;10983;51.982;9.226;2023-04-15T12:39:41;99192.91;;;9.94;100.00
21644;BME280;10983;51.982;9.226;2023-04-15T12:42:28;99171.44;;;9.79;100.00
21644;BME280;10983;51.982;9.226;2023-04-15T12:45:07;99221.03;;;9.95;100.00
21644;BME280;10983;51.982;9.226;2023-04-15T12:47:40;99187.50;;;9.89;100.00
21644;BME280;10983;51.982;9.226;2023-04-15T12:50:15;99191.03;;;9.73;100.00
21644;BME280;10983;51.982;9.226;2023-04-15T12:52:50;99224.97;;;9.92;100.00
21644;BME280;10983;51.982;9.226;2023-04-15T12:55:18;99205.34;;;9.72;100.00
21644;BME280;10983;51.982;9.226;2023-04-15T12:57:51;99246.31;;;9.97;100.00
21644;BME280;10983;51.982;9.226;2023-04-15T13:00:21;99240.25;;;10.02;100.00
21644;BME280;10983;51.982;9.226;2023-04-15T13:02:57;99261.94;;;9.94;100.00
21644;BME280;10983;51.982;9.226;2023-04-15T13:05:32;99195.03;;;9.38;100.00
21644;BME280;10983;51.982;9.226;2023-04-15T13:08:08;99206.50;;;9.59;100.00
21644;BME280;10983;51.982;9.226;2023-04-15T13:10:46;99271.94;;;10.08;100.00
21644;BME280;10983;51.982;9.226;2023-04-15T13:13:18;99297.16;;;10.06;100.00
21644;BME280;10983;51.982;9.226;2023-04-15T13:15:49;99301.53;;;9.95;100.00